Time;durP1;ratioP1;P1;durP2;ratioP2;P2;SDS_P1;SDS_P2;PMS_P1;PMS_P2;Temp;Humidity;BMP_temperature;BMP_pressure;BME280_temperature;BME280_humidity;BME280_pressure;Samples;Min_cycle;Max_cycle;Signal;HPM_P1;HPM_P2
2023/02/12 00:00:20;;;;;;;21.13;16.58;;;9.20;99.90;;;;;;5056723;28;20044;-52
2023/02/12 00:02:47;;;;;;;19.85;16.80;;;9.20;99.90;;;;;;5056514;28;20033;-54
2023/02/12 00:05:15;;;;;;;18.58;16.70;;;9.20;99.90;;;;;;5056421;28;20041;-53
2023/02/12 00:07:42;;;;;;;20.05;16.83;;;9.20;99.90;;;;;;5055034;28;20053;-54
2023/02/12 00:10:08;;;;;;;17.92;15.60;;;9.20;99.90;;;;;;5056258;28;20073;-53
2023/02/12 00:12:35;;;;;;;21.45;16.30;;;9.10;99.90;;;;;;5056376;28;20480;-52
2023/02/12 00:15:02;;;;;;;18.98;16.00;;;9.10;99.90;;;;;;5056601;28;20045;-51
2023/02/12 00:17:29;;;;;;;17.30;15.52;;;9.20;99.90;;;;;;5056428;28;20093;-55
2023/02/12 00:19:55;;;;;;;17.90;15.60;;;9.10;99.90;;;;;;5056438;28;20522;-54
2023/02/12 00:22:22;;;;;;;18.63;16.65;;;9.10;99.90;;;;;;5056194;28;20076;-55
2023/02/12 00:24:49;;;;;;;17.92;15.90;;;9.10;99.90;;;;;;5055813;28;20089;-56
2023/02/12 00:27:16;;;;;;;17.92;14.93;;;9.10;99.90;;;;;;5056087;28;20037;-53
2023/02/12 00:29:42;;;;;;;20.35;16.45;;;9.10;99.90;;;;;;5056313;28;20439;-53
2023/02/12 00:32:09;;;;;;;17.77;15.20;;;9.10;99.90;;;;;;5055702;28;20063;-52
2023/02/12 00:34:36;;;;;;;16.73;15.02;;;9.10;99.90;;;;;;5055713;28;20074;-54
2023/02/12 00:37:02;;;;;;;17.50;14.93;;;9.10;99.90;;;;;;5055550;28;20072;-54
2023/02/12 00:39:29;;;;;;;18.08;15.68;;;9.10;99.90;;;;;;5056109;28;20087;-53
2023/02/12 00:41:56;;;;;;;18.30;15.90;;;9.10;99.90;;;;;;5055607;28;20044;-52
2023/02/12 00:44:23;;;;;;;18.80;15.82;;;9.10;99.90;;;;;;5055590;28;20029;-54
2023/02/12 00:46:49;;;;;;;17.83;15.43;;;9.10;99.90;;;;;;5037853;28;20049;-50
2023/02/12 00:49:19;;;;;;;19.27;17.25;;;9.10;99.90;;;;;;5055516;28;20041;-55
2023/02/12 00:51:45;;;;;;;20.10;16.70;;;9.00;99.90;;;;;;5054643;28;20077;-51
2023/02/12 00:54:12;;;;;;;20.52;17.08;;;9.10;99.90;;;;;;5054087;28;20416;-53
2023/02/12 00:56:39;;;;;;;18.95;16.98;;;9.10;99.90;;;;;;5054050;28;20056;-50
2023/02/12 00:59:06;;;;;;;17.48;15.68;;;9.00;99.90;;;;;;5055514;28;20033;-52
2023/02/12 01:01:34;;;;;;;19.67;15.82;;;9.00;99.90;;;;;;5055555;28;20090;-56
2023/02/12 01:04:02;;;;;;;17.52;15.55;;;9.00;99.90;;;;;;5053965;28;20127;-52
2023/02/12 01:06:29;;;;;;;18.15;16.20;;;9.00;99.90;;;;;;5054944;28;20052;-50
2023/02/12 01:08:55;;;;;;;20.55;15.73;;;9.00;99.90;;;;;;5055425;28;20095;-55
2023/02/12 01:11:22;;;;;;;18.35;15.82;;;9.00;99.90;;;;;;5055088;28;20056;-54
2023/02/12 01:13:51;;;;;;;18.95;16.52;;;9.00;99.90;;;;;;5055376;28;20100;-52
2023/02/12 01:16:17;;;;;;;20.58;16.02;;;9.00;99.90;;;;;;5055116;28;20076;-50
2023/02/12 01:18:44;;;;;;;19.45;16.25;;;9.00;99.90;;;;;;5054756;28;20056;-54
2023/02/12 01:21:11;;;;;;;18.50;15.55;;;9.00;99.90;;;;;;5055275;28;20041;-55
2023/02/12 01:23:38;;;;;;;16.80;15.10;;;9.00;99.90;;;;;;5055084;28;20388;-52
2023/02/12 01:26:06;;;;;;;18.45;14.95;;;9.00;99.90;;;;;;5054912;28;20048;-49
2023/02/12 01:28:32;;;;;;;17.50;15.57;;;9.00;99.90;;;;;;5054889;28;20099;-50
2023/02/12 01:30:59;;;;;;;18.10;16.17;;;9.00;99.90;;;;;;5053983;28;20059;-55
2023/02/12 01:33:26;;;;;;;19.17;16.88;;;9.00;99.90;;;;;;5054879;28;20052;-54
2023/02/12 01:35:53;;;;;;;19.15;17.08;;;9.00;99.90;;;;;;5054450;28;20365;-53
2023/02/12 01:38:20;;;;;;;19.98;17.90;;;9.00;99.90;;;;;;5053199;28;20128;-53
2023/02/12 01:40:47;;;;;;;19.75;17.40;;;9.00;99.90;;;;;;5054479;28;20037;-53
2023/02/12 01:43:14;;;;;;;21.13;17.83;;;9.00;99.90;;;;;;5053482;28;20045;-52
2023/02/12 01:45:40;;;;;;;21.88;17.45;;;9.00;99.90;;;;;;5053578;28;20041;-52
2023/02/12 01:48:07;;;;;;;18.08;16.27;;;9.00;99.90;;;;;;5053292;28;20075;-52
2023/02/12 01:50:34;;;;;;;16.60;14.57;;;9.00;99.90;;;;;;5054619;28;20039;-51
2023/02/12 01:53:01;;;;;;;16.05;13.90;;;9.00;99.90;;;;;;5053006;28;20404;-47
2023/02/12 01:55:29;;;;;;;13.02;11.05;;;9.00;99.90;;;;;;5054268;28;20041;-55
2023/02/12 01:57:56;;;;;;;17.50;14.75;;;9.00;99.90;;;;;;5052722;28;20061;-53
2023/02/12 02:00:23;;;;;;;16.42;14.65;;;9.00;99.90;;;;;;5052940;28;20044;-53
2023/02/12 02:02:50;;;;;;;16.13;13.77;;;8.90;99.90;;;;;;5052836;28;20121;-54
2023/02/12 02:05:17;;;;;;;16.13;14.43;;;8.90;99.90;;;;;;5054308;28;20039;-54
2023/02/12 02:07:43;;;;;;;18.05;13.75;;;8.90;99.90;;;;;;5054331;28;20041;-53
2023/02/12 02:10:10;;;;;;;15.52;13.80;;;8.90;99.90;;;;;;5052820;28;20061;-53
2023/02/12 02:15:22;;;;;;;14.60;12.15;;;8.90;99.90;;;;;;5053129;28;20057;-52
2023/02/12 02:17:50;;;;;;;13.05;10.73;;;8.90;99.90;;;;;;5053914;28;20040;-51
2023/02/12 02:20:16;;;;;;;15.68;12.65;;;8.90;99.90;;;;;;5052562;28;20557;-55
2023/02/12 02:22:43;;;;;;;14.05;12.45;;;8.90;99.90;;;;;;5053713;28;20037;-52
2023/02/12 02:25:10;;;;;;;14.93;12.75;;;9.00;99.90;;;;;;5053534;28;20045;-52
2023/02/12 02:27:36;;;;;;;15.88;12.73;;;9.00;99.90;;;;;;5053623;28;20516;-49
2023/02/12 02:30:03;;;;;;;16.83;13.32;;;9.00;99.90;;;;;;5053822;28;20087;-51
2023/02/12 02:32:30;;;;;;;15.30;12.90;;;9.00;99.90;;;;;;5053813;28;20098;-50
2023/02/12 02:34:57;;;;;;;15.55;13.48;;;9.00;99.90;;;;;;5053812;28;20048;-51
2023/02/12 02:37:23;;;;;;;17.17;12.93;;;9.00;99.90;;;;;;5052494;28;20384;-50
2023/02/12 02:39:50;;;;;;;15.88;13.45;;;8.90;99.90;;;;;;5053958;28;20045;-48
2023/02/12 02:42:17;;;;;;;14.43;12.88;;;8.90;99.90;;;;;;5052896;28;20037;-47
2023/02/12 02:44:44;;;;;;;14.35;12.88;;;8.80;99.90;;;;;;5053478;28;20452;-49
2023/02/12 02:47:11;;;;;;;14.38;12.68;;;8.80;99.90;;;;;;5053294;28;20041;-52
2023/02/12 02:49:38;;;;;;;15.43;13.10;;;8.80;99.90;;;;;;5053579;28;20488;-50
2023/02/12 02:52:04;;;;;;;16.02;13.60;;;8.80;99.90;;;;;;5054038;28;20079;-52
2023/02/12 02:54:31;;;;;;;16.08;13.77;;;8.80;99.90;;;;;;5053596;28;20395;-52
2023/02/12 02:56:58;;;;;;;16.30;13.40;;;8.90;99.90;;;;;;5053429;28;20124;-50
2023/02/12 02:59:25;;;;;;;15.75;12.98;;;8.90;99.90;;;;;;5053431;28;20037;-47
2023/02/12 03:01:51;;;;;;;16.30;13.15;;;8.80;99.90;;;;;;5053059;28;20041;-46
2023/02/12 03:04:18;;;;;;;17.88;13.80;;;8.80;99.90;;;;;;5053577;28;20439;-49
2023/02/12 03:06:45;;;;;;;14.82;13.32;;;8.80;99.90;;;;;;5053347;28;20045;-54
2023/02/12 03:09:12;;;;;;;15.35;11.98;;;8.90;99.90;;;;;;5053510;28;20400;-54
2023/02/12 03:11:39;;;;;;;17.77;13.52;;;8.90;99.90;;;;;;5053335;28;20484;-50
2023/02/12 03:14:06;;;;;;;15.60;13.27;;;8.90;99.90;;;;;;5053445;28;20045;-50
2023/02/12 03:16:32;;;;;;;15.95;13.57;;;8.90;99.90;;;;;;5052395;28;20049;-52
2023/02/12 03:19:00;;;;;;;16.50;13.32;;;8.90;99.90;;;;;;5053080;28;20036;-48
2023/02/12 03:21:27;;;;;;;15.75;12.60;;;8.80;99.90;;;;;;5053589;28;20037;-50
2023/02/12 03:23:54;;;;;;;15.90;12.60;;;8.80;99.90;;;;;;5052201;28;20103;-50
2023/02/12 03:26:20;;;;;;;17.67;13.05;;;8.80;99.90;;;;;;5053219;28;20124;-52
2023/02/12 03:28:47;;;;;;;16.35;13.55;;;8.80;99.90;;;;;;5053374;28;20091;-51
2023/02/12 03:31:14;;;;;;;14.88;13.27;;;8.80;99.90;;;;;;5053369;28;20045;-49
2023/02/12 03:33:41;;;;;;;15.07;12.80;;;8.80;99.90;;;;;;5053373;28;20068;-55
2023/02/12 03:36:07;;;;;;;14.02;11.70;;;8.80;99.90;;;;;;5052877;28;20483;-50
2023/02/12 03:38:34;;;;;;;12.80;11.52;;;8.80;99.90;;;;;;5052788;28;20037;-55
2023/02/12 03:41:01;;;;;;;15.85;12.75;;;8.80;99.90;;;;;;5053163;28;20045;-52
2023/02/12 03:43:28;;;;;;;13.63;12.23;;;8.80;99.90;;;;;;5053012;28;20065;-49
2023/02/12 03:45:54;;;;;;;13.75;12.25;;;8.80;99.90;;;;;;5053084;28;20091;-54
2023/02/12 03:48:22;;;;;;;15.18;12.48;;;8.80;99.90;;;;;;5053266;28;20049;-51
2023/02/12 03:50:48;;;;;;;14.45;12.95;;;8.80;99.90;;;;;;5053476;28;20075;-54
2023/02/12 03:53:15;;;;;;;16.90;12.60;;;8.80;99.90;;;;;;5053995;28;20110;-53
2023/02/12 03:55:42;;;;;;;14.07;12.50;;;8.80;99.90;;;;;;5056694;28;20041;-50
2023/02/12 03:58:09;;;;;;;14.50;11.57;;;8.70;99.90;;;;;;5056437;28;20090;-48
2023/02/12 04:00:35;;;;;;;15.90;12.45;;;8.70;99.90;;;;;;5056631;28;20048;-51
2023/02/12 04:03:02;;;;;;;16.80;12.27;;;8.70;99.90;;;;;;5056472;28;20454;-54
2023/02/12 04:05:29;;;;;;;13.07;10.70;;;8.70;99.90;;;;;;5056592;28;20534;-55
2023/02/12 04:07:56;;;;;;;13.15;10.57;;;8.70;99.90;;;;;;5056672;28;20053;-50
2023/02/12 04:10:22;;;;;;;14.68;11.52;;;8.60;99.90;;;;;;5056561;28;20087;-55
2023/02/12 04:12:49;;;;;;;15.90;12.02;;;8.70;99.90;;;;;;5056519;28;20045;-53
2023/02/12 04:15:16;;;;;;;16.20;12.57;;;8.70;99.90;;;;;;5056480;28;20095;-52
2023/02/12 04:17:43;;;;;;;14.25;11.80;;;8.60;99.90;;;;;;5056120;28;20041;-55
2023/02/12 04:20:10;;;;;;;14.23;11.55;;;8.60;99.90;;;;;;5056432;28;20041;-50
2023/02/12 04:22:37;;;;;;;17.42;12.88;;;8.60;99.90;;;;;;5056430;28;20036;-55
2023/02/12 04:25:03;;;;;;;15.63;12.50;;;8.60;99.90;;;;;;5056057;28;20080;-51
2023/02/12 04:27:30;;;;;;;14.20;12.07;;;8.60;99.90;;;;;;5055884;28;20045;-52
2023/02/12 04:29:57;;;;;;;15.90;12.07;;;8.60;99.90;;;;;;5056248;28;20048;-53
2023/02/12 04:32:24;;;;;;;14.23;11.85;;;8.50;99.90;;;;;;5056022;28;20045;-48
2023/02/12 04:34:50;;;;;;;13.05;11.35;;;8.60;99.90;;;;;;5056419;28;20356;-52
2023/02/12 04:37:17;;;;;;;14.02;11.73;;;8.60;99.90;;;;;;5055622;28;20033;-51
2023/02/12 04:39:44;;;;;;;13.95;11.60;;;8.60;99.90;;;;;;5055478;28;20041;-54
2023/02/12 04:42:10;;;;;;;13.75;11.80;;;8.60;99.90;;;;;;5056140;28;20098;-52
2023/02/12 04:44:37;;;;;;;15.73;12.13;;;8.60;99.90;;;;;;5056048;28;20094;-55
2023/02/12 04:47:04;;;;;;;15.98;12.15;;;8.60;99.90;;;;;;5055818;28;20049;-52
2023/02/12 04:49:31;;;;;;;15.57;11.82;;;8.50;99.90;;;;;;5055841;28;20052;-52
2023/02/12 04:51:57;;;;;;;16.90;12.13;;;8.50;99.90;;;;;;5055572;28;20040;-50
2023/02/12 04:54:25;;;;;;;15.68;11.30;;;8.50;99.90;;;;;;5055788;28;20045;-52
2023/02/12 04:56:51;;;;;;;16.25;12.05;;;8.60;99.90;;;;;;5055335;28;20052;-54
2023/02/12 04:59:18;;;;;;;15.25;11.02;;;8.60;99.90;;;;;;5055670;28;20052;-56
2023/02/12 05:01:45;;;;;;;14.10;10.75;;;8.50;99.90;;;;;;5055639;28;20045;-55
2023/02/12 05:04:12;;;;;;;16.20;10.82;;;8.50;99.90;;;;;;5054970;28;20045;-55
2023/02/12 05:06:38;;;;;;;15.27;10.63;;;8.60;99.90;;;;;;5054361;28;20045;-54
2023/02/12 05:09:05;;;;;;;13.35;10.68;;;8.60;99.90;;;;;;5055353;28;20386;-56
2023/02/12 05:11:32;;;;;;;13.65;10.27;;;8.60;99.90;;;;;;5054825;28;20053;-56
2023/02/12 05:13:59;;;;;;;12.98;10.00;;;8.50;99.90;;;;;;5055543;28;20353;-53
2023/02/12 05:16:25;;;;;;;12.30;10.52;;;8.50;99.90;;;;;;5055464;28;20099;-52
2023/02/12 05:18:52;;;;;;;13.70;10.18;;;8.50;99.90;;;;;;5053602;28;20045;-54
2023/02/12 05:21:19;;;;;;;15.35;10.15;;;8.50;99.90;;;;;;5055416;28;20045;-54
2023/02/12 05:23:45;;;;;;;11.48;9.95;;;8.50;99.90;;;;;;5054948;28;20072;-53
2023/02/12 05:26:12;;;;;;;12.02;9.75;;;8.50;99.90;;;;;;5054773;28;20053;-49
2023/02/12 05:28:39;;;;;;;11.00;9.38;;;8.50;99.90;;;;;;5055175;28;20099;-52
2023/02/12 05:31:06;;;;;;;13.38;9.68;;;8.50;99.90;;;;;;5055063;28;20418;-53
2023/02/12 05:33:33;;;;;;;10.80;9.30;;;8.50;99.90;;;;;;5054936;28;20091;-53
2023/02/12 05:35:59;;;;;;;14.07;9.52;;;8.50;99.90;;;;;;5054497;28;20048;-54
2023/02/12 05:38:26;;;;;;;11.57;9.50;;;8.50;99.90;;;;;;5054642;28;20476;-54
2023/02/12 05:40:53;;;;;;;13.73;10.27;;;8.50;99.90;;;;;;5055032;28;20060;-55
2023/02/12 05:43:19;;;;;;;13.05;10.05;;;8.50;99.90;;;;;;5055237;28;20522;-54
2023/02/12 05:45:46;;;;;;;11.75;10.18;;;8.50;99.90;;;;;;5054912;28;20094;-54
2023/02/12 05:48:13;;;;;;;15.73;9.73;;;8.50;99.90;;;;;;5054559;28;20052;-52
2023/02/12 05:50:40;;;;;;;13.85;10.10;;;8.50;99.90;;;;;;5054416;28;20543;-55
2023/02/12 05:53:06;;;;;;;18.23;10.27;;;8.50;99.90;;;;;;5054855;28;20107;-55
2023/02/12 05:55:33;;;;;;;12.15;10.88;;;8.50;99.90;;;;;;5054637;28;20044;-49
2023/02/12 05:58:00;;;;;;;14.75;9.90;;;8.50;99.90;;;;;;5053987;28;20041;-52
2023/02/12 06:00:26;;;;;;;12.85;10.07;;;8.50;99.90;;;;;;5054566;28;20037;-55
2023/02/12 06:02:53;;;;;;;13.82;10.85;;;8.50;99.90;;;;;;5053584;28;20136;-54
2023/02/12 06:05:20;;;;;;;14.30;10.52;;;8.50;99.90;;;;;;5054216;28;20086;-55
2023/02/12 06:07:47;;;;;;;13.90;10.40;;;8.50;99.90;;;;;;5054314;28;20542;-52
2023/02/12 06:10:13;;;;;;;13.02;11.25;;;8.40;99.90;;;;;;5054187;28;20037;-55
2023/02/12 06:12:40;;;;;;;13.63;10.43;;;8.50;99.90;;;;;;5053939;28;20053;-52
2023/02/12 06:15:07;;;;;;;14.38;10.27;;;8.50;99.90;;;;;;5054046;28;20036;-55
2023/02/12 06:17:34;;;;;;;17.80;10.90;;;8.50;99.90;;;;;;5054079;28;20044;-53
2023/02/12 06:20:00;;;;;;;13.70;10.80;;;8.50;99.90;;;;;;5054084;28;20037;-54
2023/02/12 06:22:27;;;;;;;16.75;11.43;;;8.50;99.90;;;;;;5053792;28;20033;-54
2023/02/12 06:24:54;;;;;;;15.00;11.00;;;8.50;99.90;;;;;;5053981;28;20083;-53
2023/02/12 06:27:21;;;;;;;16.85;10.88;;;8.40;99.90;;;;;;5054083;28;20040;-53
2023/02/12 06:29:47;;;;;;;13.60;10.27;;;8.40;99.90;;;;;;5053824;28;20515;-52
2023/02/12 06:32:14;;;;;;;16.75;11.05;;;8.40;99.90;;;;;;5053655;28;20040;-55
2023/02/12 06:34:41;;;;;;;12.95;10.60;;;8.40;99.90;;;;;;5053641;28;20413;-52
2023/02/12 06:37:08;;;;;;;15.98;10.50;;;8.40;99.90;;;;;;5052308;28;20083;-51
2023/02/12 06:39:34;;;;;;;14.57;10.48;;;8.40;99.90;;;;;;5054151;28;20037;-55
2023/02/12 06:42:01;;;;;;;15.85;10.93;;;8.40;99.90;;;;;;5053974;28;20036;-54
2023/02/12 06:44:28;;;;;;;15.13;10.80;;;8.40;99.90;;;;;;5053656;28;20427;-51
2023/02/12 06:46:56;;;;;;;17.02;11.13;;;8.40;99.90;;;;;;5053448;28;20443;-53
2023/02/12 06:49:23;;;;;;;14.82;11.00;;;8.40;99.90;;;;;;5053543;28;20041;-51
2023/02/12 06:51:50;;;;;;;15.15;10.25;;;8.40;99.90;;;;;;5053719;28;20049;-50
2023/02/12 06:54:17;;;;;;;14.00;10.95;;;8.40;99.90;;;;;;5053227;28;20404;-47
2023/02/12 06:56:43;;;;;;;13.63;10.40;;;8.40;99.90;;;;;;5053359;28;20207;-51
2023/02/12 06:59:10;;;;;;;11.88;10.23;;;8.40;99.90;;;;;;5053600;28;20120;-48
2023/02/12 07:01:37;;;;;;;12.48;10.63;;;8.40;99.90;;;;;;5053545;28;20087;-48
2023/02/12 07:04:04;;;;;;;16.17;10.52;;;8.40;99.90;;;;;;5053348;28;20041;-54
2023/02/12 07:06:30;;;;;;;11.98;10.63;;;8.40;99.90;;;;;;5053046;28;20469;-49
2023/02/12 07:08:57;;;;;;;13.65;9.73;;;8.40;99.90;;;;;;5053187;28;20044;-55
2023/02/12 07:11:24;;;;;;;13.38;9.73;;;8.40;99.90;;;;;;5051908;28;20049;-53
2023/02/12 07:13:51;;;;;;;12.35;9.73;;;8.40;99.90;;;;;;5052255;28;20045;-52
2023/02/12 07:16:17;;;;;;;14.10;9.20;;;8.40;99.90;;;;;;5053129;28;20048;-50
2023/02/12 07:18:44;;;;;;;11.68;9.25;;;8.40;99.90;;;;;;5053213;28;20037;-53
2023/02/12 07:21:11;;;;;;;13.68;10.38;;;8.40;99.90;;;;;;5053174;28;20045;-53
2023/02/12 07:23:38;;;;;;;13.23;9.43;;;8.40;99.90;;;;;;5052968;28;20064;-51
2023/02/12 07:26:05;;;;;;;12.93;8.70;;;8.40;99.90;;;;;;5053235;28;20484;-51
2023/02/12 07:28:34;;;;;;;13.18;8.93;;;8.40;99.90;;;;;;5054157;28;20499;-50
2023/02/12 07:31:01;;;;;;;12.40;9.52;;;8.40;99.90;;;;;;5057323;28;20393;-53
2023/02/12 07:33:28;;;;;;;13.35;9.70;;;8.40;99.90;;;;;;5057034;28;20473;-56
2023/02/12 07:35:55;;;;;;;14.25;10.40;;;8.40;99.90;;;;;;5057056;28;20135;-56
2023/02/12 07:38:22;;;;;;;13.30;9.20;;;8.40;99.90;;;;;;5056638;28;20045;-56
2023/02/12 07:40:49;;;;;;;11.27;8.95;;;8.40;99.90;;;;;;5055776;28;20037;-53
2023/02/12 07:43:15;;;;;;;11.50;9.23;;;8.40;99.90;;;;;;5057138;28;20044;-53
2023/02/12 07:45:42;;;;;;;11.63;8.60;;;8.40;99.90;;;;;;5057079;28;20044;-54
2023/02/12 07:48:09;;;;;;;11.57;8.32;;;8.40;99.90;;;;;;5056746;28;20492;-52
2023/02/12 07:50:36;;;;;;;12.32;8.45;;;8.40;99.90;;;;;;5056914;28;20106;-55
2023/02/12 07:53:03;;;;;;;13.48;9.13;;;8.40;99.90;;;;;;5056618;28;20041;-54
2023/02/12 07:55:29;;;;;;;14.02;8.80;;;8.40;99.90;;;;;;5056654;28;20152;-55
2023/02/12 07:57:56;;;;;;;12.52;7.90;;;8.40;99.90;;;;;;5055137;28;20049;-53
2023/02/12 08:00:23;;;;;;;11.55;8.20;;;8.30;99.90;;;;;;5056664;28;20072;-52
2023/02/12 08:02:49;;;;;;;12.82;7.85;;;8.30;99.90;;;;;;5056752;28;20462;-51
2023/02/12 08:05:16;;;;;;;11.43;7.45;;;8.30;99.90;;;;;;5056787;28;20037;-53
2023/02/12 08:07:43;;;;;;;11.00;7.88;;;8.30;99.90;;;;;;5056497;28;20033;-52
2023/02/12 08:10:10;;;;;;;11.73;7.80;;;8.30;99.90;;;;;;5055513;28;20464;-51
2023/02/12 08:12:36;;;;;;;11.48;8.05;;;8.40;99.90;;;;;;5056425;28;20131;-52
2023/02/12 08:15:03;;;;;;;11.68;7.63;;;8.40;99.90;;;;;;5056391;28;20099;-54
2023/02/12 08:17:30;;;;;;;14.02;7.32;;;8.40;99.90;;;;;;5056333;28;20485;-52
2023/02/12 08:19:57;;;;;;;10.02;7.15;;;8.40;99.90;;;;;;5056345;28;20037;-54
2023/02/12 08:22:23;;;;;;;10.27;7.22;;;8.40;99.90;;;;;;5056294;28;20075;-56
2023/02/12 08:24:50;;;;;;;10.48;6.97;;;8.40;99.90;;;;;;5056255;28;20059;-49
2023/02/12 08:27:17;;;;;;;8.88;7.10;;;8.40;99.90;;;;;;5056416;28;20041;-55
2023/02/12 08:29:44;;;;;;;10.05;6.72;;;8.40;99.90;;;;;;5056158;28;20423;-53
2023/02/12 08:32:12;;;;;;;9.00;6.90;;;8.40;99.90;;;;;;5056203;28;20140;-51
2023/02/12 08:34:39;;;;;;;10.20;7.05;;;8.30;99.90;;;;;;5056022;28;20053;-50
2023/02/12 08:37:06;;;;;;;10.95;7.10;;;8.40;99.90;;;;;;5055591;28;20041;-55
2023/02/12 08:39:33;;;;;;;10.55;7.70;;;8.40;99.90;;;;;;5056054;28;20045;-49
2023/02/12 08:42:00;;;;;;;11.73;7.88;;;8.40;99.90;;;;;;5055964;28;20480;-52
2023/02/12 08:44:27;;;;;;;12.23;7.85;;;8.50;99.90;;;;;;5056025;28;20048;-55
2023/02/12 08:46:57;;;;;;;8.55;7.32;;;8.50;99.90;;;;;;5055576;28;20041;-55
2023/02/12 08:49:24;;;;;;;10.82;7.55;;;8.50;99.90;;;;;;5055830;28;20041;-53
2023/02/12 08:51:50;;;;;;;9.73;6.70;;;8.60;99.90;;;;;;5054638;28;20515;-49
2023/02/12 08:54:17;;;;;;;9.23;7.47;;;8.60;99.90;;;;;;5055480;28;20045;-53
2023/02/12 08:56:44;;;;;;;11.60;7.13;;;8.70;99.90;;;;;;5055188;28;20048;-56
2023/02/12 08:59:11;;;;;;;9.93;6.97;;;8.70;99.90;;;;;;5055582;28;20155;-54
2023/02/12 09:01:37;;;;;;;11.00;6.63;;;8.80;99.90;;;;;;5055608;28;20037;-53
2023/02/12 09:04:04;;;;;;;12.40;6.97;;;8.80;99.90;;;;;;5055344;28;20048;-56
2023/02/12 09:06:31;;;;;;;9.80;6.75;;;8.90;99.90;;;;;;5055144;28;20045;-55
2023/02/12 09:08:58;;;;;;;7.82;6.00;;;8.90;99.90;;;;;;5055264;28;20377;-53
2023/02/12 09:11:30;;;;;;;10.73;6.15;;;8.90;99.90;;;;;;5055072;28;20496;-54
2023/02/12 09:13:58;;;;;;;9.52;5.30;;;9.00;99.90;;;;;;5055191;28;20048;-51
2023/02/12 09:16:24;;;;;;;7.43;5.25;;;9.00;99.90;;;;;;5053968;28;20428;-55
2023/02/12 09:18:51;;;;;;;6.82;4.97;;;9.00;99.90;;;;;;5055482;28;20418;-50
2023/02/12 09:21:18;;;;;;;7.57;4.97;;;9.10;99.90;;;;;;5055187;28;20044;-54
2023/02/12 09:23:45;;;;;;;8.13;5.53;;;9.10;99.90;;;;;;5055553;28;20143;-53
2023/02/12 09:26:12;;;;;;;6.63;4.68;;;9.10;99.90;;;;;;5054872;28;20091;-56
2023/02/12 09:28:39;;;;;;;5.65;4.60;;;9.10;99.90;;;;;;5054805;28;20045;-56
2023/02/12 09:31:05;;;;;;;6.13;4.30;;;9.10;99.90;;;;;;5054858;28;20435;-54
2023/02/12 09:33:32;;;;;;;6.65;4.47;;;9.10;99.90;;;;;;5055161;28;20124;-56
2023/02/12 09:35:59;;;;;;;6.93;4.38;;;9.20;99.90;;;;;;5054616;28;20063;-55
2023/02/12 09:38:26;;;;;;;5.72;4.75;;;9.10;99.90;;;;;;5054790;28;20044;-52
2023/02/12 09:40:53;;;;;;;5.25;4.15;;;9.10;99.90;;;;;;5053771;28;20407;-54
2023/02/12 09:43:19;;;;;;;5.93;4.28;;;9.10;99.90;;;;;;5054742;28;20055;-54
2023/02/12 09:45:46;;;;;;;5.60;4.10;;;9.10;99.90;;;;;;5054902;28;20040;-54
2023/02/12 09:48:16;;;;;;;6.05;4.18;;;9.20;99.90;;;;;;5054956;28;20056;-53
2023/02/12 09:50:43;;;;;;;5.47;4.13;;;9.20;99.90;;;;;;5054145;28;20076;-53
2023/02/12 09:53:10;;;;;;;7.68;3.85;;;9.20;99.90;;;;;;5054536;28;20060;-55
2023/02/12 09:55:37;;;;;;;5.47;3.58;;;9.20;99.90;;;;;;5054603;28;20098;-51
2023/02/12 09:58:04;;;;;;;4.38;3.42;;;9.30;99.90;;;;;;5054365;28;20044;-51
2023/02/12 10:00:31;;;;;;;4.90;3.10;;;9.30;99.90;;;;;;5054507;28;20380;-50
2023/02/12 10:02:57;;;;;;;4.03;2.90;;;9.30;99.90;;;;;;5054348;28;20037;-50
2023/02/12 10:05:24;;;;;;;4.25;3.15;;;9.30;99.90;;;;;;5054446;28;20115;-50
2023/02/12 10:07:51;;;;;;;4.90;2.78;;;9.30;99.90;;;;;;5053997;28;20056;-49
2023/02/12 10:10:18;;;;;;;3.65;2.63;;;9.30;99.90;;;;;;5054004;28;20036;-52
2023/02/12 10:12:44;;;;;;;4.35;2.40;;;9.40;99.90;;;;;;5054011;28;20045;-54
2023/02/12 10:15:11;;;;;;;3.85;2.20;;;9.40;99.90;;;;;;5054094;28;20098;-55
2023/02/12 10:17:38;;;;;;;2.92;1.73;;;9.40;99.90;;;;;;5054035;28;20098;-52
2023/02/12 10:20:05;;;;;;;3.20;1.90;;;9.40;99.90;;;;;;5054192;28;20431;-51
2023/02/12 10:22:32;;;;;;;3.30;2.13;;;9.50;99.90;;;;;;5054104;28;20048;-49
2023/02/12 10:24:58;;;;;;;3.65;1.80;;;9.50;99.90;;;;;;5054142;28;20041;-48
2023/02/12 10:27:25;;;;;;;3.13;1.75;;;9.50;99.90;;;;;;5054130;28;20037;-50
2023/02/12 10:29:52;;;;;;;3.53;2.25;;;9.50;99.90;;;;;;5054364;28;20053;-52
2023/02/12 10:32:19;;;;;;;2.40;1.65;;;9.60;99.90;;;;;;5053895;28;20041;-49
2023/02/12 10:34:46;;;;;;;2.55;1.27;;;9.60;99.90;;;;;;5054220;28;20057;-53
2023/02/12 10:37:13;;;;;;;2.38;1.42;;;9.70;99.90;;;;;;5054182;28;20037;-49
2023/02/12 10:39:40;;;;;;;2.58;1.52;;;9.70;99.90;;;;;;5053933;28;20075;-47
2023/02/12 10:42:07;;;;;;;2.92;1.27;;;9.70;99.90;;;;;;5052696;28;20547;-54
2023/02/12 10:44:34;;;;;;;2.85;1.58;;;9.70;99.90;;;;;;5053848;28;20548;-50
2023/02/12 10:47:01;;;;;;;2.40;1.45;;;9.70;99.90;;;;;;5053592;28;20171;-50
2023/02/12 10:49:28;;;;;;;2.60;1.60;;;9.80;99.90;;;;;;5053624;28;20116;-49
2023/02/12 10:51:55;;;;;;;2.30;1.50;;;9.80;99.90;;;;;;5052098;28;20076;-52
2023/02/12 10:54:22;;;;;;;3.25;1.50;;;9.80;99.90;;;;;;5053520;28;20354;-54
2023/02/12 10:56:49;;;;;;;3.72;1.65;;;9.80;99.90;;;;;;5053378;28;20045;-51
2023/02/12 10:59:16;;;;;;;3.70;2.42;;;9.80;99.90;;;;;;5053617;28;20318;-50
2023/02/12 11:01:43;;;;;;;3.35;2.10;;;9.90;99.90;;;;;;5052649;28;20081;-54
2023/02/12 11:04:10;;;;;;;4.40;2.13;;;9.90;99.90;;;;;;5055494;28;20041;-53
2023/02/12 11:06:38;;;;;;;3.00;1.85;;;9.90;99.90;;;;;;5057476;28;20462;-52
2023/02/12 11:09:05;;;;;;;3.30;1.73;;;9.90;99.90;;;;;;5058141;28;20041;-52
2023/02/12 11:11:32;;;;;;;3.30;2.10;;;9.90;99.90;;;;;;5057167;28;20454;-57
2023/02/12 11:13:59;;;;;;;6.07;2.08;;;9.90;99.90;;;;;;5056128;28;20057;-50
2023/02/12 11:16:26;;;;;;;4.70;1.92;;;10.00;99.90;;;;;;5057531;28;20450;-59
2023/02/12 11:18:53;;;;;;;3.20;2.00;;;10.00;99.90;;;;;;5057060;28;20477;-50
2023/02/12 11:21:20;;;;;;;3.63;2.30;;;10.10;99.90;;;;;;5057433;28;20106;-55
2023/02/12 11:23:47;;;;;;;4.82;2.05;;;10.10;99.90;;;;;;5057443;28;20071;-54
2023/02/12 11:26:14;;;;;;;3.53;1.88;;;10.10;99.90;;;;;;5057192;28;20099;-47
2023/02/12 11:28:43;;;;;;;2.85;2.00;;;10.10;99.90;;;;;;5056119;28;20041;-53
2023/02/12 11:31:10;;;;;;;2.85;1.80;;;10.10;99.90;;;;;;5057099;28;20041;-53
2023/02/12 11:33:37;;;;;;;2.97;2.20;;;10.10;99.90;;;;;;5057353;28;20041;-48
2023/02/12 11:36:04;;;;;;;2.92;1.95;;;10.10;99.90;;;;;;5057164;28;20063;-55
2023/02/12 11:38:33;;;;;;;3.15;1.58;;;10.10;99.90;;;;;;5057030;28;20041;-48
2023/02/12 11:41:00;;;;;;;3.15;2.00;;;10.10;99.90;;;;;;5057459;28;20041;-54
2023/02/12 11:43:28;;;;;;;3.13;1.98;;;10.10;99.90;;;;;;5057036;28;20044;-48
2023/02/12 11:45:55;;;;;;;2.30;1.70;;;10.20;99.90;;;;;;5056903;28;20064;-54
2023/02/12 11:48:22;;;;;;;2.63;1.55;;;10.20;99.90;;;;;;5056828;28;20369;-55
2023/02/12 11:50:49;;;;;;;2.53;1.70;;;10.20;99.90;;;;;;5056801;28;20040;-56
2023/02/12 11:53:16;;;;;;;4.47;2.20;;;10.20;99.90;;;;;;5056756;28;20488;-54
2023/02/12 11:55:42;;;;;;;3.05;1.98;;;10.20;99.90;;;;;;5055338;28;20049;-54
2023/02/12 11:58:09;;;;;;;2.22;1.50;;;10.20;99.90;;;;;;5056807;28;20033;-53
2023/02/12 12:00:36;;;;;;;2.70;1.90;;;10.20;99.90;;;;;;5056541;28;20049;-51
2023/02/12 12:03:03;;;;;;;2.70;1.98;;;10.20;99.90;;;;;;5056553;28;20480;-50
2023/02/12 12:05:30;;;;;;;2.47;1.75;;;10.20;99.90;;;;;;5056540;28;20049;-50
2023/02/12 12:07:57;;;;;;;2.92;1.95;;;10.20;99.90;;;;;;5056381;28;20091;-49
2023/02/12 12:10:23;;;;;;;3.10;2.15;;;10.30;99.90;;;;;;5056332;28;20053;-53
2023/02/12 12:12:50;;;;;;;4.75;2.08;;;10.20;99.90;;;;;;5056343;28;20057;-52
2023/02/12 12:20:48;;;;;;;2.92;1.67;;;10.30;99.90;;;;;;5056211;28;20087;-49
2023/02/12 12:23:14;;;;;;;3.13;1.63;;;10.30;99.90;;;;;;5056473;28;20120;-54
2023/02/12 12:25:41;;;;;;;3.53;2.10;;;10.30;99.90;;;;;;5056108;28;20041;-50
2023/02/12 12:28:08;;;;;;;4.88;2.05;;;10.30;99.90;;;;;;5054711;28;20409;-51
2023/02/12 12:30:35;;;;;;;3.05;2.05;;;10.30;99.90;;;;;;5056374;28;20041;-51
2023/02/12 12:33:02;;;;;;;4.63;2.42;;;10.30;99.90;;;;;;5056091;28;20151;-50
2023/02/12 12:35:29;;;;;;;3.30;2.20;;;10.30;99.90;;;;;;5054755;28;20072;-54
2023/02/12 12:37:55;;;;;;;4.60;2.38;;;10.20;99.90;;;;;;5054686;28;20103;-49
2023/02/12 12:40:22;;;;;;;4.60;2.25;;;10.20;99.90;;;;;;5055920;28;20495;-48
2023/02/12 12:42:49;;;;;;;3.55;1.85;;;10.20;99.90;;;;;;5055741;28;20068;-49
2023/02/12 12:45:16;;;;;;;2.80;1.73;;;10.20;99.90;;;;;;5054884;28;20396;-53
2023/02/12 12:47:43;;;;;;;2.95;1.75;;;10.10;99.90;;;;;;5055843;28;20033;-53